Time;durP1;ratioP1;P1;durP2;ratioP2;P2;SDS_P1;SDS_P2;PMS_P1;PMS_P2;Temp;Humidity;BMP_temperature;BMP_pressure;BME280_temperature;BME280_humidity;BME280_pressure;Samples;Min_cycle;Max_cycle;Signal;HPM_P1;HPM_P2
2022/02/09 00:10:08;;;;;;;4.60;1.35;;;8.70;99.90;;;;;;4960659;28;20035;-80
2022/02/09 00:12:47;;;;;;;1.52;0.88;;;8.70;99.90;;;;;;4966067;28;20038;-81
2022/02/09 00:23:38;;;;;;;1.85;1.05;;;8.70;99.90;;;;;;4974173;28;20147;-81
2022/02/09 00:29:17;;;;;;;2.65;1.00;;;8.70;99.90;;;;;;4974686;28;20041;-81
2022/02/09 00:40:02;;;;;;;2.10;1.25;;;8.70;99.90;;;;;;4958963;28;20031;-81
2022/02/09 00:59:15;;;;;;;1.50;0.52;;;8.70;99.90;;;;;;4972837;28;20081;-81
2022/02/09 01:43:25;;;;;;;1.73;0.70;;;8.70;99.90;;;;;;4957309;28;20032;-82
2022/02/09 01:51:15;;;;;;;2.05;0.43;;;8.60;99.90;;;;;;4957979;29;20093;-82
2022/02/09 01:56:28;;;;;;;1.48;0.60;;;8.60;99.90;;;;;;4957480;29;20086;-82
2022/02/09 01:58:54;;;;;;;1.60;0.73;;;8.60;99.90;;;;;;4956565;29;20114;-83
2022/02/09 02:01:20;;;;;;;2.85;0.70;;;8.60;99.90;;;;;;4956061;28;20054;-81
2022/02/09 02:03:46;;;;;;;1.25;0.73;;;8.70;99.90;;;;;;4956361;29;20077;-82
2022/02/09 02:06:14;;;;;;;0.70;0.40;;;8.60;99.90;;;;;;4955994;28;20035;-82
2022/02/09 02:08:40;;;;;;;1.45;0.70;;;8.70;99.90;;;;;;4956222;29;20063;-82
2022/02/09 02:11:23;;;;;;;1.25;0.65;;;8.70;99.90;;;;;;4955931;29;20028;-88
2022/02/09 02:14:07;;;;;;;1.00;0.60;;;8.70;99.90;;;;;;4957465;28;20023;-82
2022/02/09 02:16:38;;;;;;;2.08;0.80;;;8.70;99.90;;;;;;4957860;28;20035;-82
2022/02/09 02:19:13;;;;;;;2.92;0.50;;;8.60;99.90;;;;;;4956385;29;20031;-80
2022/02/09 02:22:03;;;;;;;1.95;0.70;;;8.70;99.90;;;;;;4956320;29;20460;-80
2022/02/09 02:32:49;;;;;;;1.65;0.60;;;8.70;99.90;;;;;;4956511;28;20056;-81
2022/02/09 02:38:53;;;;;;;1.80;0.85;;;8.60;99.90;;;;;;4956927;29;20034;-80
2022/02/09 02:59:41;;;;;;;1.55;0.73;;;8.70;99.90;;;;;;4955771;28;20069;-80
2022/02/09 03:13:07;;;;;;;1.23;0.73;;;8.70;99.90;;;;;;4956229;29;20090;-80
2022/02/09 03:15:53;;;;;;;1.63;0.93;;;8.80;99.90;;;;;;4954236;29;20038;-79
2022/02/09 03:21:17;;;;;;;1.95;0.70;;;8.70;99.90;;;;;;4956089;29;20038;-80
2022/02/09 03:23:51;;;;;;;0.88;0.70;;;8.70;99.90;;;;;;4954682;29;20394;-80
2022/02/09 03:42:25;;;;;;;1.75;0.90;;;8.60;99.90;;;;;;4955618;29;20039;-80
2022/02/09 03:53:11;;;;;;;4.45;1.13;;;8.60;99.90;;;;;;4955973;29;20078;-80
2022/02/09 03:58:08;;;;;;;3.08;0.90;;;8.60;99.90;;;;;;4955890;28;20034;-82
2022/02/09 04:00:38;;;;;;;2.30;1.00;;;8.60;99.90;;;;;;4953998;29;20126;-81
2022/02/09 04:03:09;;;;;;;3.17;1.20;;;8.60;99.90;;;;;;4954472;29;20122;-83
2022/02/09 04:05:35;;;;;;;3.63;1.00;;;8.60;99.90;;;;;;4954225;29;20129;-82
2022/02/09 04:08:02;;;;;;;3.33;1.20;;;8.70;99.90;;;;;;4954591;28;20127;-82
2022/02/09 04:10:36;;;;;;;5.82;1.40;;;8.70;99.90;;;;;;4954796;28;20020;-81
2022/02/09 04:40:14;;;;;;;5.15;2.00;;;8.80;99.90;;;;;;4959042;29;20050;-82
2022/02/09 04:43:02;;;;;;;3.40;1.60;;;8.80;99.90;;;;;;4957164;29;20058;-82
2022/02/09 04:56:40;;;;;;;6.20;1.83;;;8.70;99.90;;;;;;4958732;29;20049;-82
2022/02/09 05:18:27;;;;;;;7.78;2.85;;;8.50;99.90;;;;;;4959398;29;20114;-82
2022/02/09 05:28:43;;;;;;;9.35;2.88;;;8.50;99.90;;;;;;4957658;28;20031;-80
2022/02/09 05:31:09;;;;;;;4.32;2.67;;;8.50;99.90;;;;;;4956867;29;20035;-81
2022/02/09 05:33:36;;;;;;;6.53;2.60;;;8.40;99.90;;;;;;4955992;28;20127;-80
2022/02/09 05:36:02;;;;;;;6.55;2.78;;;8.40;99.90;;;;;;4957739;28;20023;-80
2022/02/09 05:38:28;;;;;;;7.40;2.80;;;8.40;99.90;;;;;;4954989;29;20055;-81
2022/02/09 05:40:53;;;;;;;6.63;2.33;;;8.30;99.90;;;;;;4956185;29;20392;-81
2022/02/09 05:43:21;;;;;;;7.03;3.13;;;8.30;99.90;;;;;;4956279;28;20037;-85
2022/02/09 05:46:38;;;;;;;6.53;2.20;;;8.30;99.90;;;;;;4956442;28;20039;-81
2022/02/09 05:51:44;;;;;;;8.18;3.10;;;8.30;99.90;;;;;;4956985;29;20055;-81
2022/02/09 05:56:45;;;;;;;8.05;3.15;;;8.20;99.90;;;;;;4957117;28;20031;-81
2022/02/09 06:01:49;;;;;;;6.57;2.92;;;8.20;99.90;;;;;;4957620;28;20041;-82
2022/02/09 06:04:15;;;;;;;7.18;2.67;;;8.10;99.90;;;;;;4956017;28;20035;-81
2022/02/09 06:06:42;;;;;;;6.95;2.95;;;8.10;99.90;;;;;;4954807;28;20028;-81
2022/02/09 06:09:09;;;;;;;5.40;2.50;;;8.10;99.90;;;;;;4955908;28;20024;-80
2022/02/09 06:12:25;;;;;;;9.55;3.13;;;8.10;99.90;;;;;;4956348;28;20062;-79
2022/02/09 06:21:57;;;;;;;8.80;2.97;;;8.00;99.90;;;;;;4956640;29;20046;-79
2022/02/09 06:24:23;;;;;;;6.03;2.72;;;7.90;99.90;;;;;;4955055;28;20051;-83
2022/02/09 06:26:49;;;;;;;10.07;2.90;;;8.00;99.90;;;;;;4955531;28;20019;-81
2022/02/09 06:29:15;;;;;;;5.57;2.72;;;8.00;99.90;;;;;;4955884;28;20122;-81
2022/02/09 06:31:44;;;;;;;8.00;3.00;;;8.00;99.90;;;;;;4955099;29;20461;-81
2022/02/09 06:34:16;;;;;;;12.55;3.13;;;7.90;99.90;;;;;;4955853;29;20117;-79
2022/02/09 06:36:47;;;;;;;4.80;2.55;;;7.90;99.90;;;;;;4955097;29;20032;-79
2022/02/09 06:39:15;;;;;;;5.72;2.90;;;7.90;99.90;;;;;;4955573;29;20480;-80
2022/02/09 06:41:41;;;;;;;6.32;2.85;;;7.90;99.90;;;;;;4955169;28;20031;-81
2022/02/09 06:44:08;;;;;;;11.82;2.58;;;7.80;99.90;;;;;;4955309;29;20031;-81
2022/02/09 06:46:36;;;;;;;10.75;2.72;;;7.90;99.90;;;;;;4955118;28;20445;-81
2022/02/09 06:49:07;;;;;;;9.65;3.00;;;7.80;99.90;;;;;;4956542;28;20027;-81
2022/02/09 06:51:37;;;;;;;8.52;2.88;;;7.80;99.90;;;;;;4955174;28;20028;-81
2022/02/09 06:54:12;;;;;;;10.00;2.90;;;7.70;99.90;;;;;;4955434;28;20485;-81
2022/02/09 06:57:01;;;;;;;7.80;3.05;;;7.70;99.90;;;;;;4954865;29;20035;-81
2022/02/09 06:59:30;;;;;;;8.13;3.40;;;7.70;99.90;;;;;;4954883;29;20024;-84
2022/02/09 07:02:06;;;;;;;8.18;3.05;;;7.60;99.90;;;;;;4955381;28;20027;-81
2022/02/09 07:04:37;;;;;;;6.97;2.65;;;7.60;99.90;;;;;;4954737;29;20477;-81
2022/02/09 07:07:04;;;;;;;9.10;3.15;;;7.50;99.90;;;;;;4955189;29;20035;-81
2022/02/09 07:09:31;;;;;;;7.50;3.20;;;7.50;99.90;;;;;;4954373;28;20054;-82
2022/02/09 07:11:57;;;;;;;7.30;3.05;;;7.50;99.90;;;;;;4954806;28;20063;-81
2022/02/09 07:14:26;;;;;;;6.35;2.83;;;7.50;99.90;;;;;;4954821;28;20059;-81
2022/02/09 07:16:53;;;;;;;6.65;2.88;;;7.40;99.90;;;;;;4955452;28;20037;-81
2022/02/09 07:19:20;;;;;;;9.15;3.42;;;7.40;99.90;;;;;;4954958;28;20114;-81
2022/02/09 07:21:47;;;;;;;10.30;3.47;;;7.40;99.90;;;;;;4954243;28;20038;-81
2022/02/09 07:24:18;;;;;;;9.65;3.38;;;7.40;99.90;;;;;;4954710;28;20059;-80
2022/02/09 07:29:11;;;;;;;7.43;2.90;;;7.30;99.90;;;;;;4955949;28;20032;-80
2022/02/09 07:31:36;;;;;;;6.45;3.15;;;7.20;99.90;;;;;;4954174;28;20070;-83
2022/02/09 07:34:03;;;;;;;9.43;3.53;;;7.20;99.90;;;;;;4954746;29;20035;-81
2022/02/09 07:36:35;;;;;;;7.93;2.92;;;7.10;99.90;;;;;;4953888;28;20129;-85
2022/02/09 07:39:03;;;;;;;8.73;3.40;;;7.10;99.90;;;;;;4954986;29;20118;-80
2022/02/09 07:41:29;;;;;;;9.33;3.60;;;7.20;99.90;;;;;;4954027;28;20027;-82
2022/02/09 07:51:41;;;;;;;8.63;3.90;;;7.20;99.90;;;;;;4955379;29;20117;-79
2022/02/09 07:54:09;;;;;;;11.20;4.13;;;7.10;99.90;;;;;;4954541;29;20035;-80
2022/02/09 07:56:37;;;;;;;13.97;4.30;;;7.00;99.90;;;;;;4954205;28;20028;-80
2022/02/09 07:59:08;;;;;;;11.07;3.97;;;7.00;99.90;;;;;;4954549;28;20465;-79
2022/02/09 08:01:35;;;;;;;10.15;4.75;;;7.00;99.90;;;;;;4954191;29;20027;-80
2022/02/09 08:04:01;;;;;;;12.20;3.97;;;7.00;99.90;;;;;;4954362;29;20090;-80
2022/02/09 08:06:27;;;;;;;15.87;4.50;;;6.90;99.90;;;;;;4954479;28;20059;-87
2022/02/09 08:09:04;;;;;;;11.93;4.17;;;6.90;99.90;;;;;;4954581;29;20027;-80
2022/02/09 08:33:18;;;;;;;14.60;4.47;;;6.80;99.90;;;;;;4955467;28;20027;-81
2022/02/09 08:35:51;;;;;;;10.73;4.70;;;6.80;99.90;;;;;;4953725;29;20121;-81
2022/02/09 08:38:17;;;;;;;10.13;4.60;;;6.90;99.90;;;;;;4955750;28;20031;-81
2022/02/09 08:40:46;;;;;;;8.77;3.70;;;6.90;99.90;;;;;;4953859;29;20031;-83
2022/02/09 08:43:12;;;;;;;11.70;3.80;;;6.90;99.90;;;;;;4954136;28;20035;-82
2022/02/09 08:45:39;;;;;;;11.53;3.63;;;6.90;99.90;;;;;;4953517;29;20102;-80
2022/02/09 08:48:06;;;;;;;6.33;3.20;;;6.90;99.90;;;;;;4954203;28;20031;-81
2022/02/09 08:50:32;;;;;;;11.23;3.30;;;7.00;99.90;;;;;;4954801;28;20537;-81
2022/02/09 08:52:57;;;;;;;7.90;2.80;;;7.00;99.90;;;;;;4954263;28;20067;-82
2022/02/09 08:55:23;;;;;;;12.03;2.87;;;7.00;99.90;;;;;;4955001;28;20028;-82
2022/02/09 08:57:49;;;;;;;9.93;2.90;;;7.10;99.90;;;;;;4953563;28;20078;-82
2022/02/09 09:00:33;;;;;;;7.20;2.80;;;7.10;99.90;;;;;;4956600;28;20031;-81
2022/02/09 09:03:25;;;;;;;10.60;3.10;;;7.20;99.90;;;;;;4968049;28;20392;-83
2022/02/09 09:05:53;;;;;;;6.07;2.35;;;7.20;99.90;;;;;;4965434;28;20118;-86
2022/02/09 09:19:24;;;;;;;8.63;2.23;;;7.40;99.90;;;;;;4965636;28;20114;-84
2022/02/09 10:30:59;;;;;;;;;;;8.10;99.90;;;;;;4959484;28;20034;-79
2022/02/09 10:34:26;;;;;;;5.15;2.30;;;8.40;99.90;;;;;;4969507;28;20130;-80
2022/02/09 10:37:05;;;;;;;6.32;2.28;;;8.50;99.90;;;;;;4976430;28;20130;-80
2022/02/09 10:40:00;;;;;;;7.80;2.70;;;8.50;99.90;;;;;;4963444;28;20035;-80
2022/02/09 10:42:37;;;;;;;6.60;1.90;;;8.50;99.90;;;;;;4956187;29;20094;-84
2022/02/09 10:45:17;;;;;;;5.45;2.38;;;8.50;99.90;;;;;;4961477;28;20039;-80
2022/02/09 10:47:43;;;;;;;6.07;2.25;;;8.60;99.90;;;;;;4956398;28;20114;-82
2022/02/09 10:50:11;;;;;;;5.10;1.80;;;8.60;99.90;;;;;;4955610;29;20113;-81
2022/02/09 10:52:43;;;;;;;6.95;2.40;;;8.60;99.90;;;;;;4955457;29;20027;-82
2022/02/09 10:55:27;;;;;;;9.38;2.20;;;8.70;99.90;;;;;;4956257;29;20138;-82
2022/02/09 10:57:53;;;;;;;4.68;2.13;;;8.70;99.90;;;;;;4955185;28;20058;-82
2022/02/09 11:00:20;;;;;;;6.18;2.72;;;8.80;99.90;;;;;;4955878;29;20030;-83
2022/02/09 11:02:48;;;;;;;9.07;2.67;;;8.80;99.90;;;;;;4955997;28;20567;-80
2022/02/09 11:05:13;;;;;;;8.75;2.47;;;8.80;99.90;;;;;;4960761;28;20117;-80
2022/02/09 11:07:39;;;;;;;4.93;2.28;;;8.90;99.90;;;;;;4966616;28;20158;-81
2022/02/09 11:10:05;;;;;;;6.40;2.33;;;9.00;99.90;;;;;;4965693;28;20027;-81
2022/02/09 11:12:31;;;;;;;5.20;2.20;;;9.00;99.90;;;;;;4959080;28;20035;-80
2022/02/09 11:14:57;;;;;;;6.88;2.30;;;9.10;99.90;;;;;;4969493;28;20392;-79
2022/02/09 11:17:24;;;;;;;5.32;2.25;;;9.10;99.90;;;;;;4959477;28;20065;-80
2022/02/09 11:19:52;;;;;;;7.07;2.00;;;9.20;99.90;;;;;;4964318;28;20079;-82
2022/02/09 11:22:25;;;;;;;7.10;2.40;;;9.20;99.90;;;;;;4966056;28;20035;-83
2022/02/09 11:25:13;;;;;;;9.13;2.30;;;9.30;99.90;;;;;;4971656;28;20484;-84
2022/02/09 11:27:46;;;;;;;4.30;1.98;;;9.30;99.90;;;;;;4961594;28;20023;-83
2022/02/09 11:30:35;;;;;;;5.00;2.47;;;9.40;99.90;;;;;;4961467;28;20039;-84
2022/02/09 11:33:24;;;;;;;4.15;2.08;;;9.50;99.90;;;;;;4970641;28;20026;-84
2022/02/09 11:36:04;;;;;;;8.77;2.45;;;9.60;99.90;;;;;;4965955;28;20038;-79
2022/02/09 11:38:51;;;;;;;7.88;2.42;;;9.60;99.90;;;;;;4961830;28;20031;-78
2022/02/09 11:41:27;;;;;;;4.43;2.13;;;9.60;99.40;;;;;;4961970;28;20035;-79
2022/02/09 11:44:20;;;;;;;4.13;1.90;;;9.70;99.30;;;;;;4954178;28;20027;-82
2022/02/09 11:47:15;;;;;;;6.25;2.15;;;9.70;97.80;;;;;;4961227;28;20055;-82
2022/02/09 11:50:17;;;;;;;5.38;2.20;;;9.70;98.50;;;;;;4960022;28;20081;-84
2022/02/09 12:09:19;;;;;;;4.38;2.10;;;10.10;95.90;;;;;;4959425;28;20067;-81
2022/02/09 12:11:49;;;;;;;8.85;2.30;;;10.10;96.30;;;;;;4970885;28;20033;-85
2022/02/09 12:15:11;;;;;;;6.78;2.22;;;10.20;96.60;;;;;;4967662;28;20039;-86
2022/02/09 12:23:26;;;;;;;6.15;2.25;;;10.60;95.70;;;;;;4955956;28;20037;-85
2022/02/09 12:25:52;;;;;;;3.90;2.13;;;10.80;95.70;;;;;;4957900;28;20031;-86
2022/02/09 12:28:21;;;;;;;6.47;2.40;;;11.10;95.40;;;;;;4968270;28;20468;-86
2022/02/09 12:30:47;;;;;;;6.45;2.55;;;11.30;95.10;;;;;;4973082;28;20050;-86
2022/02/09 12:33:20;;;;;;;4.60;2.05;;;11.50;93.30;;;;;;4975613;28;20039;-85
2022/02/09 12:35:46;;;;;;;5.50;2.30;;;11.60;93.10;;;;;;4968542;28;20031;-82
2022/02/09 12:38:11;;;;;;;6.53;2.00;;;11.80;92.10;;;;;;4957902;28;20078;-82
2022/02/09 12:40:38;;;;;;;5.05;2.13;;;12.00;91.80;;;;;;4974661;28;20035;-82
2022/02/09 12:43:06;;;;;;;4.78;1.67;;;12.20;90.80;;;;;;4960311;28;20125;-82
2022/02/09 12:45:36;;;;;;;4.57;2.00;;;12.30;90.10;;;;;;4968994;28;20090;-82
2022/02/09 12:48:06;;;;;;;99.88;51.08;;;12.50;90.50;;;;;;4965001;28;20031;-88
2022/02/09 12:50:41;;;;;;;92.38;47.85;;;12.70;88.40;;;;;;4961903;28;20058;-80
2022/02/09 12:53:08;;;;;;;7.75;5.63;;;12.80;85.70;;;;;;4961926;28;20019;-83
2022/02/09 12:55:39;;;;;;;9.90;3.90;;;12.90;84.40;;;;;;4973062;28;20023;-89
2022/02/09 12:58:08;;;;;;;6.80;2.92;;;13.00;82.90;;;;;;4976887;28;20566;-85
2022/02/09 13:00:43;;;;;;;5.85;2.28;;;13.10;81.80;;;;;;4961928;28;20053;-84
2022/02/09 13:03:18;;;;;;;5.47;2.10;;;13.40;83.80;;;;;;4973083;28;20027;-83
2022/02/09 13:05:57;;;;;;;4.82;2.30;;;13.60;78.80;;;;;;4965333;28;20042;-83
2022/02/09 13:08:28;;;;;;;4.18;1.88;;;13.80;73.80;;;;;;4964155;28;20032;-83
2022/02/09 13:13:53;;;;;;;6.95;1.80;;;14.70;66.20;;;;;;4977084;28;20045;-85
2022/02/09 13:16:39;;;;;;;3.10;1.65;;;15.20;65.40;;;;;;4963850;28;20063;-87
2022/02/09 14:04:46;;;;;;;3.20;1.27;;;18.50;50.80;;;;;;4965156;28;20033;-81
2022/02/09 14:34:18;;;;;;;2.45;1.30;;;15.60;62.90;;;;;;4965733;28;20123;-82
2022/02/09 14:48:14;;;;;;;4.95;2.65;;;14.70;73.10;;;;;;4969948;28;20481;-85
2022/02/09 14:53:28;;;;;;;7.18;1.75;;;14.30;76.90;;;;;;4960598;28;20046;-80
2022/02/09 14:58:28;;;;;;;3.70;1.75;;;14.00;79.40;;;;;;4960216;28;20028;-85
2022/02/09 15:01:03;;;;;;;5.05;1.45;;;13.90;81.70;;;;;;4973511;28;20490;-82
2022/02/09 15:16:33;;;;;;;3.60;1.30;;;13.50;84.40;;;;;;4974981;28;20070;-79
2022/02/09 15:24:31;;;;;;;3.60;1.20;;;13.40;87.50;;;;;;4955915;28;20166;-83
2022/02/09 15:27:00;;;;;;;2.95;1.17;;;13.30;86.60;;;;;;4970439;28;20548;-81
2022/02/09 15:29:25;;;;;;;3.58;1.20;;;13.30;87.40;;;;;;4959413;28;20035;-80
2022/02/09 15:31:55;;;;;;;2.05;1.20;;;13.20;88.70;;;;;;4964641;28;20027;-80
2022/02/09 15:39:19;;;;;;;2.55;1.10;;;13.10;88.10;;;;;;4959756;28;20380;-80
2022/02/09 15:42:04;;;;;;;2.42;1.00;;;13.00;88.60;;;;;;4973222;28;20027;-80
2022/02/09 16:38:21;;;;;;;4.22;1.50;;;12.00;91.40;;;;;;4967867;28;20027;-84
2022/02/09 16:46:19;;;;;;;3.97;1.20;;;11.90;92.20;;;;;;4966639;28;20058;-81
2022/02/09 16:49:10;;;;;;;2.78;1.25;;;11.80;92.40;;;;;;4976112;28;20078;-81
2022/02/09 16:51:52;;;;;;;2.90;1.33;;;11.80;92.60;;;;;;4965707;28;20408;-81
2022/02/09 17:20:54;;;;;;;7.57;1.75;;;11.20;94.30;;;;;;4972753;28;20085;-85
2022/02/09 17:23:19;;;;;;;3.08;1.80;;;11.20;94.50;;;;;;4976991;28;20121;-82
2022/02/09 17:25:45;;;;;;;4.75;2.35;;;11.10;94.80;;;;;;4968700;28;20130;-83
2022/02/09 17:28:15;;;;;;;4.38;1.77;;;11.10;94.90;;;;;;4968195;28;20058;-83
2022/02/09 17:33:26;;;;;;;4.65;1.90;;;11.00;95.20;;;;;;4974949;28;20082;-84
2022/02/09 17:36:03;;;;;;;6.72;1.95;;;11.00;95.40;;;;;;4965435;28;20042;-84
2022/02/09 17:39:27;;;;;;;4.72;1.80;;;10.90;95.70;;;;;;4965653;28;20027;-82
2022/02/09 17:57:46;;;;;;;3.65;2.58;;;10.80;96.10;;;;;;4975186;28;20070;-80
2022/02/09 18:00:16;;;;;;;4.13;1.90;;;10.80;96.20;;;;;;4972604;28;20435;-80
2022/02/09 18:02:51;;;;;;;3.83;2.05;;;10.70;96.30;;;;;;4957298;28;20023;-74
2022/02/09 18:05:34;;;;;;;5.18;2.30;;;10.70;96.50;;;;;;4962373;28;20026;-80
2022/02/09 18:08:09;;;;;;;4.95;2.05;;;10.70;96.50;;;;;;4961748;28;20020;-74
2022/02/09 18:31:23;;;;;;;6.70;2.72;;;10.30;97.70;;;;;;4960770;28;20049;-80
2022/02/09 18:44:44;;;;;;;5.55;3.67;;;10.60;97.50;;;;;;4937345;28;20042;-78
2022/02/09 19:05:51;;;;;;;8.73;2.95;;;9.60;99.60;;;;;;4964066;28;20038;-76
2022/02/09 19:08:55;;;;;;;6.35;2.58;;;9.50;99.90;;;;;;4959713;28;20081;-77
2022/02/09 19:16:49;;;;;;;4.38;2.65;;;9.30;99.90;;;;;;4961121;28;20087;-77
2022/02/09 19:30:04;;;;;;;8.77;3.72;;;9.00;99.90;;;;;;4965454;28;20083;-78
2022/02/09 19:32:34;;;;;;;6.00;2.83;;;8.90;99.90;;;;;;4967667;28;20129;-78
2022/02/09 19:48:23;;;;;;;7.53;2.90;;;8.00;99.90;;;;;;4960850;28;20054;-76
2022/02/09 19:56:11;;;;;;;11.27;3.22;;;7.80;99.90;;;;;;4962358;28;20031;-77
2022/02/09 19:58:54;;;;;;;5.15;2.53;;;7.70;99.90;;;;;;4966030;28;20031;-78
2022/02/09 20:01:22;;;;;;;5.80;2.58;;;7.60;99.90;;;;;;4959030;28;20030;-77
2022/02/09 20:03:48;;;;;;;5.55;2.60;;;7.50;99.90;;;;;;4961233;28;20035;-77
2022/02/09 20:06:13;;;;;;;10.48;3.13;;;7.50;99.90;;;;;;4958663;28;20490;-77
2022/02/09 20:08:40;;;;;;;6.50;2.90;;;7.50;99.90;;;;;;4967831;28;20065;-76
2022/02/09 20:11:08;;;;;;;7.95;3.10;;;7.40;99.90;;;;;;4956990;28;20102;-76
2022/02/09 20:13:34;;;;;;;7.55;3.22;;;7.40;99.90;;;;;;4959429;28;20042;-76
2022/02/09 20:16:00;;;;;;;6.40;2.95;;;7.30;99.90;;;;;;4960946;28;20046;-76
2022/02/09 20:18:27;;;;;;;6.07;2.47;;;7.20;99.90;;;;;;4966284;28;20039;-76
2022/02/09 20:20:56;;;;;;;8.57;2.70;;;7.20;99.90;;;;;;4955628;28;20452;-75
2022/02/09 20:23:22;;;;;;;4.07;2.30;;;7.10;99.90;;;;;;4967431;28;20196;-76
2022/02/09 20:25:48;;;;;;;6.88;2.05;;;7.00;99.90;;;;;;4960869;28;20041;-76
2022/02/09 20:28:14;;;;;;;6.47;1.90;;;7.00;99.90;;;;;;4959351;28;20027;-76
2022/02/09 20:30:45;;;;;;;4.60;2.22;;;7.00;99.90;;;;;;4954333;28;20527;-75
2022/02/09 20:33:16;;;;;;;6.18;2.80;;;7.00;99.90;;;;;;4969064;28;20023;-76
2022/02/09 20:35:42;;;;;;;10.10;3.15;;;7.00;99.90;;;;;;4962577;28;20027;-76
2022/02/09 20:38:13;;;;;;;7.45;3.60;;;7.00;99.90;;;;;;4955758;28;20488;-75
2022/02/09 20:40:55;;;;;;;9.52;3.85;;;6.80;99.90;;;;;;4965528;28;20053;-76
2022/02/09 20:43:24;;;;;;;7.28;3.45;;;6.70;99.90;;;;;;4963792;28;20040;-75
2022/02/09 20:45:53;;;;;;;7.80;3.65;;;6.70;99.90;;;;;;4960401;28;20037;-76
2022/02/09 20:48:27;;;;;;;6.75;3.67;;;6.70;99.90;;;;;;4958620;28;20044;-76
2022/02/09 20:50:56;;;;;;;9.68;3.70;;;6.60;99.90;;;;;;4964669;28;20042;-76
2022/02/09 20:53:22;;;;;;;7.60;3.80;;;6.70;99.90;;;;;;4960548;28;20034;-75
2022/02/09 20:55:49;;;;;;;7.47;4.13;;;6.60;99.90;;;;;;4962405;28;20174;-76
2022/02/09 20:58:16;;;;;;;12.20;5.67;;;6.50;99.90;;;;;;4957733;28;20038;-76
2022/02/09 21:00:54;;;;;;;12.63;6.10;;;6.40;99.90;;;;;;4958779;28;20038;-77
2022/02/09 21:06:16;;;;;;;13.93;6.33;;;6.40;99.90;;;;;;4966429;28;20027;-76
2022/02/09 21:09:13;;;;;;;13.07;5.47;;;6.30;99.90;;;;;;4960479;28;20023;-75
2022/02/09 21:14:29;;;;;;;9.60;4.40;;;6.10;99.90;;;;;;4963589;28;20042;-76
2022/02/09 21:19:55;;;;;;;11.10;4.63;;;5.90;99.90;;;;;;4970442;28;20483;-77
2022/02/09 21:22:47;;;;;;;9.73;4.53;;;5.80;99.90;;;;;;4955030;28;20118;-77
2022/02/09 21:49:06;;;;;;;6.25;2.90;;;5.80;99.90;;;;;;4971169;28;20035;-76
2022/02/09 21:52:36;;;;;;;5.63;2.67;;;5.60;99.90;;;;;;4964903;28;20027;-76
2022/02/09 21:55:12;;;;;;;9.03;2.97;;;5.60;99.90;;;;;;4971129;28;20035;-77
2022/02/09 22:00:30;;;;;;;7.20;3.33;;;5.40;99.90;;;;;;4957350;28;20035;-76
2022/02/09 22:22:04;;;;;;;7.47;3.67;;;5.10;99.90;;;;;;4965675;28;20037;-74
2022/02/09 22:30:13;;;;;;;5.87;3.23;;;5.00;99.90;;;;;;4968508;28;20421;-74
2022/02/09 22:47:00;;;;;;;7.93;3.27;;;4.60;99.90;;;;;;4965358;28;20046;-73
2022/02/09 22:54:46;;;;;;;5.60;3.57;;;4.50;99.90;;;;;;4913087;28;20131;-73
2022/02/09 22:57:13;;;;;;;5.13;3.00;;;4.50;99.90;;;;;;4964959;28;20523;-75
2022/02/09 22:59:59;;;;;;;7.33;3.57;;;4.60;99.90;;;;;;4964828;28;20031;-74
2022/02/09 23:02:30;;;;;;;9.37;4.00;;;4.60;99.90;;;;;;4959892;28;20102;-74
2022/02/09 23:08:00;;;;;;;7.37;3.83;;;4.50;99.90;;;;;;4962425;28;20045;-77
2022/02/09 23:10:51;;;;;;;9.07;3.57;;;4.50;99.90;;;;;;4967560;28;20037;-75
2022/02/09 23:13:21;;;;;;;9.07;4.07;;;4.50;99.90;;;;;;4961124;28;20027;-75
2022/02/09 23:21:48;;;;;;;8.10;3.93;;;4.40;99.90;;;;;;4961536;28;20050;-74
2022/02/09 23:54:28;;;;;;;10.07;4.50;;;4.60;99.90;;;;;;4961728;28;20042;-76
